sensor_id;sensor_type;location;lat;lon;timestamp;temperature;humidity
13892;DHT22;7016;48.172;8.058;2023-01-15T00:02:05;12.40;99.90
13892;DHT22;7016;48.172;8.058;2023-01-15T00:04:31;12.40;99.90
13892;DHT22;7016;48.172;8.058;2023-01-15T00:06:56;12.40;99.90
13892;DHT22;7016;48.172;8.058;2023-01-15T00:09:25;12.40;99.90
13892;DHT22;7016;48.172;8.058;2023-01-15T00:11:50;12.50;99.90
13892;DHT22;7016;48.172;8.058;2023-01-15T00:14:16;12.50;99.90
13892;DHT22;7016;48.172;8.058;2023-01-15T00:16:42;12.50;99.90
13892;DHT22;7016;48.172;8.058;2023-01-15T00:19:09;12.40;99.90
13892;DHT22;7016;48.172;8.058;2023-01-15T00:21:36;12.40;99.90
13892;DHT22;7016;48.172;8.058;2023-01-15T00:24:02;12.40;99.90
13892;DHT22;7016;48.172;8.058;2023-01-15T00:26:47;12.30;99.90
13892;DHT22;7016;48.172;8.058;2023-01-15T00:29:31;12.40;99.90
13892;DHT22;7016;48.172;8.058;2023-01-15T00:32:01;12.30;99.90
13892;DHT22;7016;48.172;8.058;2023-01-15T00:34:28;12.30;99.90
13892;DHT22;7016;48.172;8.058;2023-01-15T00:36:55;12.30;99.90
13892;DHT22;7016;48.172;8.058;2023-01-15T00:39:21;12.20;99.90
13892;DHT22;7016;48.172;8.058;2023-01-15T00:41:48;12.20;99.90
13892;DHT22;7016;48.172;8.058;2023-01-15T00:44:15;12.20;99.90
13892;DHT22;7016;48.172;8.058;2023-01-15T00:46:41;12.20;99.90
13892;DHT22;7016;48.172;8.058;2023-01-15T00:49:07;12.10;99.90
13892;DHT22;7016;48.172;8.058;2023-01-15T00:51:32;12.00;99.90
13892;DHT22;7016;48.172;8.058;2023-01-15T00:53:58;12.00;99.90
13892;DHT22;7016;48.172;8.058;2023-01-15T00:56:24;12.00;99.90
13892;DHT22;7016;48.172;8.058;2023-01-15T00:58:50;12.00;99.90
13892;DHT22;7016;48.172;8.058;2023-01-15T01:01:15;11.90;99.90
13892;DHT22;7016;48.172;8.058;2023-01-15T01:03:42;11.80;99.90
13892;DHT22;7016;48.172;8.058;2023-01-15T01:06:08;11.90;99.90
13892;DHT22;7016;48.172;8.058;2023-01-15T01:08:34;11.80;99.90
13892;DHT22;7016;48.172;8.058;2023-01-15T01:11:11;11.80;99.90
13892;DHT22;7016;48.172;8.058;2023-01-15T01:13:38;11.90;99.90
13892;DHT22;7016;48.172;8.058;2023-01-15T01:16:17;12.00;99.90
13892;DHT22;7016;48.172;8.058;2023-01-15T01:18:45;11.90;99.90
13892;DHT22;7016;48.172;8.058;2023-01-15T01:21:11;11.90;99.90
13892;DHT22;7016;48.172;8.058;2023-01-15T01:23:36;11.90;99.90
13892;DHT22;7016;48.172;8.058;2023-01-15T01:26:02;12.00;99.90
13892;DHT22;7016;48.172;8.058;2023-01-15T01:28:28;12.00;99.90
13892;DHT22;7016;48.172;8.058;2023-01-15T01:30:54;11.90;99.90
13892;DHT22;7016;48.172;8.058;2023-01-15T01:33:19;11.90;99.90
13892;DHT22;7016;48.172;8.058;2023-01-15T01:35:49;11.90;99.90
13892;DHT22;7016;48.172;8.058;2023-01-15T01:38:15;11.90;99.90
13892;DHT22;7016;48.172;8.058;2023-01-15T01:40:41;11.90;99.90
13892;DHT22;7016;48.172;8.058;2023-01-15T01:43:22;12.00;99.90
13892;DHT22;7016;48.172;8.058;2023-01-15T01:45:48;12.00;99.90
13892;DHT22;7016;48.172;8.058;2023-01-15T01:48:16;12.10;99.90
13892;DHT22;7016;48.172;8.058;2023-01-15T01:50:44;12.00;99.90
13892;DHT22;7016;48.172;8.058;2023-01-15T01:53:19;12.00;99.90
13892;DHT22;7016;48.172;8.058;2023-01-15T01:55:47;12.10;99.90
13892;DHT22;7016;48.172;8.058;2023-01-15T01:58:13;12.10;99.90
13892;DHT22;7016;48.172;8.058;2023-01-15T02:00:44;12.10;99.90
13892;DHT22;7016;48.172;8.058;2023-01-15T02:03:10;12.10;99.90
13892;DHT22;7016;48.172;8.058;2023-01-15T02:05:38;12.10;99.90
13892;DHT22;7016;48.172;8.058;2023-01-15T02:08:05;12.10;99.90
13892;DHT22;7016;48.172;8.058;2023-01-15T02:10:32;12.10;99.90
13892;DHT22;7016;48.172;8.058;2023-01-15T02:13:11;12.10;99.90
13892;DHT22;7016;48.172;8.058;2023-01-15T02:15:44;12.20;99.90
13892;DHT22;7016;48.172;8.058;2023-01-15T02:18:21;12.20;99.90
13892;DHT22;7016;48.172;8.058;2023-01-15T02:20:54;12.20;99.90
13892;DHT22;7016;48.172;8.058;2023-01-15T02:23:32;12.20;99.90
13892;DHT22;7016;48.172;8.058;2023-01-15T02:28:46;12.30;99.90
13892;DHT22;7016;48.172;8.058;2023-01-15T02:31:14;12.30;99.90
13892;DHT22;7016;48.172;8.058;2023-01-15T02:34:01;12.20;99.90
13892;DHT22;7016;48.172;8.058;2023-01-15T02:36:32;12.20;99.90
13892;DHT22;7016;48.172;8.058;2023-01-15T02:39:02;12.30;99.90
13892;DHT22;7016;48.172;8.058;2023-01-15T02:41:34;12.30;99.90
13892;DHT22;7016;48.172;8.058;2023-01-15T02:44:02;12.30;99.90
13892;DHT22;7016;48.172;8.058;2023-01-15T02:46:32;12.30;99.90
13892;DHT22;7016;48.172;8.058;2023-01-15T02:48:59;12.40;99.90
13892;DHT22;7016;48.172;8.058;2023-01-15T02:51:32;12.40;99.90
13892;DHT22;7016;48.172;8.058;2023-01-15T02:54:01;12.40;99.90
13892;DHT22;7016;48.172;8.058;2023-01-15T02:56:31;12.40;99.90
13892;DHT22;7016;48.172;8.058;2023-01-15T02:59:04;12.40;99.90
13892;DHT22;7016;48.172;8.058;2023-01-15T03:01:40;12.40;99.90
13892;DHT22;7016;48.172;8.058;2023-01-15T03:04:19;12.40;99.90
13892;DHT22;7016;48.172;8.058;2023-01-15T03:06:58;12.40;99.90
13892;DHT22;7016;48.172;8.058;2023-01-15T03:09:26;12.40;99.90
13892;DHT22;7016;48.172;8.058;2023-01-15T03:12:03;12.40;99.90
13892;DHT22;7016;48.172;8.058;2023-01-15T03:14:37;12.40;99.90
13892;DHT22;7016;48.172;8.058;2023-01-15T03:17:13;12.40;99.90
13892;DHT22;7016;48.172;8.058;2023-01-15T03:24:53;12.30;99.90
13892;DHT22;7016;48.172;8.058;2023-01-15T03:27:21;12.30;99.90
13892;DHT22;7016;48.172;8.058;2023-01-15T03:29:49;12.20;99.90
13892;DHT22;7016;48.172;8.058;2023-01-15T03:32:17;12.30;99.90
13892;DHT22;7016;48.172;8.058;2023-01-15T03:34:50;12.30;99.90
13892;DHT22;7016;48.172;8.058;2023-01-15T03:37:17;12.30;99.90
13892;DHT22;7016;48.172;8.058;2023-01-15T03:39:43;12.30;99.90
13892;DHT22;7016;48.172;8.058;2023-01-15T03:45:11;12.30;99.90
13892;DHT22;7016;48.172;8.058;2023-01-15T03:47:54;12.20;99.90
13892;DHT22;7016;48.172;8.058;2023-01-15T03:50:42;12.30;99.90
13892;DHT22;7016;48.172;8.058;2023-01-15T03:53:21;12.30;99.90
13892;DHT22;7016;48.172;8.058;2023-01-15T03:56:11;12.30;99.90
13892;DHT22;7016;48.172;8.058;2023-01-15T03:58:55;12.20;99.90
13892;DHT22;7016;48.172;8.058;2023-01-15T04:01:35;12.20;99.90
13892;DHT22;7016;48.172;8.058;2023-01-15T04:04:02;12.30;99.90
13892;DHT22;7016;48.172;8.058;2023-01-15T04:06:31;12.30;99.90
13892;DHT22;7016;48.172;8.058;2023-01-15T04:08:59;12.30;99.90
13892;DHT22;7016;48.172;8.058;2023-01-15T04:11:26;12.30;99.90
13892;DHT22;7016;48.172;8.058;2023-01-15T04:13:52;12.10;99.90
13892;DHT22;7016;48.172;8.058;2023-01-15T04:16:24;12.10;99.90
13892;DHT22;7016;48.172;8.058;2023-01-15T04:18:51;12.20;99.90
13892;DHT22;7016;48.172;8.058;2023-01-15T04:21:17;12.20;99.90
13892;DHT22;7016;48.172;8.058;2023-01-15T04:23:42;12.10;99.90
13892;DHT22;7016;48.172;8.058;2023-01-15T04:26:09;12.10;99.90
13892;DHT22;7016;48.172;8.058;2023-01-15T04:28:34;12.20;99.90
13892;DHT22;7016;48.172;8.058;2023-01-15T04:31:00;12.10;99.90
13892;DHT22;7016;48.172;8.058;2023-01-15T04:33:25;12.00;99.90
13892;DHT22;7016;48.172;8.058;2023-01-15T04:35:51;12.00;99.90
13892;DHT22;7016;48.172;8.058;2023-01-15T04:38:17;12.10;99.90
13892;DHT22;7016;48.172;8.058;2023-01-15T04:40:43;12.10;99.90
13892;DHT22;7016;48.172;8.058;2023-01-15T04:43:27;12.10;99.90
13892;DHT22;7016;48.172;8.058;2023-01-15T04:46:12;12.10;99.90
13892;DHT22;7016;48.172;8.058;2023-01-15T04:48:40;12.00;99.90
13892;DHT22;7016;48.172;8.058;2023-01-15T04:51:06;12.00;99.90
13892;DHT22;7016;48.172;8.058;2023-01-15T04:53:32;12.10;99.90
13892;DHT22;7016;48.172;8.058;2023-01-15T04:56:05;12.00;99.90
13892;DHT22;7016;48.172;8.058;2023-01-15T04:58:31;12.00;99.90
13892;DHT22;7016;48.172;8.058;2023-01-15T05:00:58;12.00;99.90
13892;DHT22;7016;48.172;8.058;2023-01-15T05:03:29;11.90;99.90
13892;DHT22;7016;48.172;8.058;2023-01-15T05:05:55;11.80;99.90
13892;DHT22;7016;48.172;8.058;2023-01-15T05:08:25;11.80;99.90
13892;DHT22;7016;48.172;8.058;2023-01-15T05:10:50;11.70;99.90
13892;DHT22;7016;48.172;8.058;2023-01-15T05:13:16;11.70;99.90
13892;DHT22;7016;48.172;8.058;2023-01-15T05:15:42;11.70;99.90
13892;DHT22;7016;48.172;8.058;2023-01-15T05:18:11;11.70;99.90
13892;DHT22;7016;48.172;8.058;2023-01-15T05:20:40;11.70;99.90
13892;DHT22;7016;48.172;8.058;2023-01-15T05:23:07;11.60;99.90
13892;DHT22;7016;48.172;8.058;2023-01-15T05:25:35;11.70;99.90
13892;DHT22;7016;48.172;8.058;2023-01-15T05:28:01;11.60;99.90
13892;DHT22;7016;48.172;8.058;2023-01-15T05:30:26;11.60;99.90
13892;DHT22;7016;48.172;8.058;2023-01-15T05:32:52;11.60;99.90
13892;DHT22;7016;48.172;8.058;2023-01-15T05:35:18;11.60;99.90
13892;DHT22;7016;48.172;8.058;2023-01-15T05:37:44;11.50;99.90
13892;DHT22;7016;48.172;8.058;2023-01-15T05:40:10;11.50;99.90
13892;DHT22;7016;48.172;8.058;2023-01-15T05:42:36;11.50;99.90
13892;DHT22;7016;48.172;8.058;2023-01-15T05:45:01;11.50;99.90
13892;DHT22;7016;48.172;8.058;2023-01-15T05:47:27;11.60;99.90
13892;DHT22;7016;48.172;8.058;2023-01-15T05:49:53;11.50;99.90
13892;DHT22;7016;48.172;8.058;2023-01-15T05:52:18;11.60;99.90
13892;DHT22;7016;48.172;8.058;2023-01-15T05:54:44;11.60;99.90
13892;DHT22;7016;48.172;8.058;2023-01-15T05:57:11;11.60;99.90
13892;DHT22;7016;48.172;8.058;2023-01-15T05:59:37;11.50;99.90
13892;DHT22;7016;48.172;8.058;2023-01-15T06:02:03;11.60;99.90
13892;DHT22;7016;48.172;8.058;2023-01-15T06:04:30;11.60;99.90
13892;DHT22;7016;48.172;8.058;2023-01-15T06:06:56;11.60;99.90
13892;DHT22;7016;48.172;8.058;2023-01-15T06:09:23;11.50;99.90
13892;DHT22;7016;48.172;8.058;2023-01-15T06:11:49;11.60;99.90
13892;DHT22;7016;48.172;8.058;2023-01-15T06:14:15;11.60;99.90
13892;DHT22;7016;48.172;8.058;2023-01-15T06:16:41;11.60;99.90
13892;DHT22;7016;48.172;8.058;2023-01-15T06:19:08;11.60;99.90
13892;DHT22;7016;48.172;8.058;2023-01-15T06:21:35;11.60;99.90
13892;DHT22;7016;48.172;8.058;2023-01-15T06:24:01;11.60;99.90
13892;DHT22;7016;48.172;8.058;2023-01-15T06:26:27;11.60;99.90
13892;DHT22;7016;48.172;8.058;2023-01-15T06:28:53;11.70;99.90
13892;DHT22;7016;48.172;8.058;2023-01-15T06:31:20;11.60;99.90
13892;DHT22;7016;48.172;8.058;2023-01-15T06:33:47;11.60;99.90
13892;DHT22;7016;48.172;8.058;2023-01-15T06:36:18;11.60;99.90
13892;DHT22;7016;48.172;8.058;2023-01-15T06:38:46;11.50;99.90
13892;DHT22;7016;48.172;8.058;2023-01-15T06:41:18;11.40;99.90
13892;DHT22;7016;48.172;8.058;2023-01-15T06:44:03;11.30;99.90
13892;DHT22;7016;48.172;8.058;2023-01-15T06:46:49;11.40;99.90
13892;DHT22;7016;48.172;8.058;2023-01-15T06:49:34;11.20;99.90
13892;DHT22;7016;48.172;8.058;2023-01-15T06:52:00;10.70;99.90
13892;DHT22;7016;48.172;8.058;2023-01-15T06:54:26;10.70;99.90
13892;DHT22;7016;48.172;8.058;2023-01-15T06:56:52;10.60;99.90
13892;DHT22;7016;48.172;8.058;2023-01-15T06:59:19;10.50;99.90
13892;DHT22;7016;48.172;8.058;2023-01-15T07:01:45;10.20;99.90
13892;DHT22;7016;48.172;8.058;2023-01-15T07:04:11;10.20;99.90
13892;DHT22;7016;48.172;8.058;2023-01-15T07:06:38;10.10;99.90
13892;DHT22;7016;48.172;8.058;2023-01-15T07:09:04;9.90;99.90
13892;DHT22;7016;48.172;8.058;2023-01-15T07:11:30;9.90;99.90
13892;DHT22;7016;48.172;8.058;2023-01-15T07:13:56;9.90;99.90
13892;DHT22;7016;48.172;8.058;2023-01-15T07:16:32;9.90;99.90
13892;DHT22;7016;48.172;8.058;2023-01-15T07:18:58;9.80;99.90
13892;DHT22;7016;48.172;8.058;2023-01-15T07:21:24;9.80;99.90
13892;DHT22;7016;48.172;8.058;2023-01-15T07:23:50;9.80;99.90
13892;DHT22;7016;48.172;8.058;2023-01-15T07:26:15;9.90;99.90
13892;DHT22;7016;48.172;8.058;2023-01-15T07:28:41;9.80;99.90
13892;DHT22;7016;48.172;8.058;2023-01-15T07:31:07;9.60;99.90
13892;DHT22;7016;48.172;8.058;2023-01-15T07:33:33;9.50;99.90
13892;DHT22;7016;48.172;8.058;2023-01-15T07:36:02;9.60;99.90
13892;DHT22;7016;48.172;8.058;2023-01-15T07:38:28;9.60;99.90
13892;DHT22;7016;48.172;8.058;2023-01-15T07:40:58;9.60;99.90
13892;DHT22;7016;48.172;8.058;2023-01-15T07:43:43;9.70;99.90
13892;DHT22;7016;48.172;8.058;2023-01-15T07:46:28;9.60;99.90
13892;DHT22;7016;48.172;8.058;2023-01-15T07:49:13;9.60;99.90
13892;DHT22;7016;48.172;8.058;2023-01-15T07:51:58;9.40;99.90
13892;DHT22;7016;48.172;8.058;2023-01-15T07:54:24;9.30;99.90
13892;DHT22;7016;48.172;8.058;2023-01-15T07:56:51;9.30;99.90
13892;DHT22;7016;48.172;8.058;2023-01-15T07:59:17;9.30;99.90
13892;DHT22;7016;48.172;8.058;2023-01-15T08:01:43;9.20;99.90
13892;DHT22;7016;48.172;8.058;2023-01-15T08:04:08;9.10;99.90
13892;DHT22;7016;48.172;8.058;2023-01-15T08:06:35;9.20;99.90
13892;DHT22;7016;48.172;8.058;2023-01-15T08:09:01;9.10;99.90
13892;DHT22;7016;48.172;8.058;2023-01-15T08:11:27;9.10;99.90
13892;DHT22;7016;48.172;8.058;2023-01-15T08:14:11;9.10;99.90
13892;DHT22;7016;48.172;8.058;2023-01-15T08:16:55;9.20;99.90
13892;DHT22;7016;48.172;8.058;2023-01-15T08:19:21;9.00;99.90
13892;DHT22;7016;48.172;8.058;2023-01-15T08:21:50;9.10;99.90
13892;DHT22;7016;48.172;8.058;2023-01-15T08:24:16;9.00;99.90
13892;DHT22;7016;48.172;8.058;2023-01-15T08:26:41;9.00;99.90
13892;DHT22;7016;48.172;8.058;2023-01-15T08:29:07;9.00;99.90
13892;DHT22;7016;48.172;8.058;2023-01-15T08:31:33;9.00;99.90
13892;DHT22;7016;48.172;8.058;2023-01-15T08:33:59;9.00;99.90
13892;DHT22;7016;48.172;8.058;2023-01-15T08:36:25;9.10;99.90
13892;DHT22;7016;48.172;8.058;2023-01-15T08:38:51;9.00;99.90
13892;DHT22;7016;48.172;8.058;2023-01-15T08:41:17;8.80;99.90
13892;DHT22;7016;48.172;8.058;2023-01-15T08:43:42;8.60;99.90
13892;DHT22;7016;48.172;8.058;2023-01-15T08:46:10;8.50;99.90
13892;DHT22;7016;48.172;8.058;2023-01-15T08:48:36;8.40;99.90
13892;DHT22;7016;48.172;8.058;2023-01-15T08:51:07;8.30;99.90
13892;DHT22;7016;48.172;8.058;2023-01-15T08:53:33;8.30;99.90
13892;DHT22;7016;48.172;8.058;2023-01-15T08:55:59;8.30;99.90
13892;DHT22;7016;48.172;8.058;2023-01-15T08:58:31;8.40;99.90
13892;DHT22;7016;48.172;8.058;2023-01-15T09:01:05;8.20;99.90
13892;DHT22;7016;48.172;8.058;2023-01-15T09:03:33;8.10;99.90
13892;DHT22;7016;48.172;8.058;2023-01-15T09:06:00;8.10;99.90
13892;DHT22;7016;48.172;8.058;2023-01-15T09:08:27;8.00;99.90
13892;DHT22;7016;48.172;8.058;2023-01-15T09:11:01;8.10;99.90
13892;DHT22;7016;48.172;8.058;2023-01-15T09:13:29;8.00;99.90
13892;DHT22;7016;48.172;8.058;2023-01-15T09:15:59;8.00;99.90
13892;DHT22;7016;48.172;8.058;2023-01-15T09:18:25;8.00;99.90
13892;DHT22;7016;48.172;8.058;2023-01-15T09:20:50;8.10;99.90
13892;DHT22;7016;48.172;8.058;2023-01-15T09:23:16;8.00;99.90
13892;DHT22;7016;48.172;8.058;2023-01-15T09:25:57;8.00;99.90
13892;DHT22;7016;48.172;8.058;2023-01-15T09:28:23;8.00;99.90
13892;DHT22;7016;48.172;8.058;2023-01-15T09:30:49;8.10;99.90
13892;DHT22;7016;48.172;8.058;2023-01-15T09:33:14;8.20;99.90
13892;DHT22;7016;48.172;8.058;2023-01-15T09:35:42;8.20;99.90
13892;DHT22;7016;48.172;8.058;2023-01-15T09:38:19;8.10;99.90
13892;DHT22;7016;48.172;8.058;2023-01-15T09:41:01;8.10;99.90
13892;DHT22;7016;48.172;8.058;2023-01-15T09:46:22;8.00;99.90
13892;DHT22;7016;48.172;8.058;2023-01-15T09:51:51;8.00;99.90
13892;DHT22;7016;48.172;8.058;2023-01-15T09:57:13;8.50;99.90
13892;DHT22;7016;48.172;8.058;2023-01-15T09:59:44;7.80;99.90
13892;DHT22;7016;48.172;8.058;2023-01-15T10:02:24;7.90;99.90
13892;DHT22;7016;48.172;8.058;2023-01-15T10:04:56;7.90;99.90
13892;DHT22;7016;48.172;8.058;2023-01-15T10:07:40;8.00;99.90
13892;DHT22;7016;48.172;8.058;2023-01-15T10:10:14;8.00;99.90
13892;DHT22;7016;48.172;8.058;2023-01-15T10:12:43;7.90;99.90
13892;DHT22;7016;48.172;8.058;2023-01-15T10:17:43;7.80;99.90
13892;DHT22;7016;48.172;8.058;2023-01-15T10:20:47;7.90;99.90
13892;DHT22;7016;48.172;8.058;2023-01-15T10:37:18;6.80;99.90
13892;DHT22;7016;48.172;8.058;2023-01-15T10:40:10;6.90;99.90
13892;DHT22;7016;48.172;8.058;2023-01-15T10:45:30;6.60;99.90
13892;DHT22;7016;48.172;8.058;2023-01-15T10:48:33;6.40;99.90
13892;DHT22;7016;48.172;8.058;2023-01-15T10:51:11;6.20;99.90
13892;DHT22;7016;48.172;8.058;2023-01-15T10:53:56;6.30;99.90
13892;DHT22;7016;48.172;8.058;2023-01-15T10:59:24;6.30;99.90
13892;DHT22;7016;48.172;8.058;2023-01-15T11:01:58;6.40;99.90
13892;DHT22;7016;48.172;8.058;2023-01-15T11:04:25;6.40;99.90
13892;DHT22;7016;48.172;8.058;2023-01-15T11:06:54;6.50;99.90
13892;DHT22;7016;48.172;8.058;2023-01-15T11:09:22;6.40;99.90
13892;DHT22;7016;48.172;8.058;2023-01-15T11:11:50;6.50;99.90
13892;DHT22;7016;48.172;8.058;2023-01-15T11:14:37;6.40;99.90
13892;DHT22;7016;48.172;8.058;2023-01-15T11:17:42;6.40;99.90
13892;DHT22;7016;48.172;8.058;2023-01-15T11:20:33;6.30;99.90
13892;DHT22;7016;48.172;8.058;2023-01-15T11:23:09;6.20;99.90
13892;DHT22;7016;48.172;8.058;2023-01-15T11:25:35;6.20;99.90
13892;DHT22;7016;48.172;8.058;2023-01-15T11:28:05;6.20;99.90
13892;DHT22;7016;48.172;8.058;2023-01-15T11:30:34;6.20;99.90
13892;DHT22;7016;48.172;8.058;2023-01-15T11:33:02;6.50;99.90
13892;DHT22;7016;48.172;8.058;2023-01-15T11:35:30;6.40;99.90
13892;DHT22;7016;48.172;8.058;2023-01-15T11:38:02;6.20;99.90
13892;DHT22;7016;48.172;8.058;2023-01-15T11:40:29;6.10;99.90
13892;DHT22;7016;48.172;8.058;2023-01-15T11:42:54;6.10;99.90
13892;DHT22;7016;48.172;8.058;2023-01-15T11:45:49;6.10;99.90
13892;DHT22;7016;48.172;8.058;2023-01-15T11:48:45;6.10;99.90
13892;DHT22;7016;48.172;8.058;2023-01-15T11:51:34;6.20;99.90
13892;DHT22;7016;48.172;8.058;2023-01-15T11:54:04;6.20;99.90
13892;DHT22;7016;48.172;8.058;2023-01-15T11:56:32;6.20;99.90
13892;DHT22;7016;48.172;8.058;2023-01-15T11:59:02;6.30;99.90
13892;DHT22;7016;48.172;8.058;2023-01-15T12:01:31;6.30;99.90
13892;DHT22;7016;48.172;8.058;2023-01-15T12:04:05;6.30;99.90
13892;DHT22;7016;48.172;8.058;2023-01-15T12:06:35;6.40;99.90
13892;DHT22;7016;48.172;8.058;2023-01-15T12:17:01;6.20;99.90
13892;DHT22;7016;48.172;8.058;2023-01-15T12:31:15;6.30;99.90
13892;DHT22;7016;48.172;8.058;2023-01-15T12:33:57;6.20;99.90
13892;DHT22;7016;48.172;8.058;2023-01-15T12:38:59;6.20;99.90
13892;DHT22;7016;48.172;8.058;2023-01-15T12:41:30;6.00;99.90
13892;DHT22;7016;48.172;8.058;2023-01-15T12:44:38;5.90;99.90
13892;DHT22;7016;48.172;8.058;2023-01-15T12:50:50;6.10;99.90
13892;DHT22;7016;48.172;8.058;2023-01-15T12:53:38;5.90;99.90
13892;DHT22;7016;48.172;8.058;2023-01-15T13:01:17;5.60;99.90
13892;DHT22;7016;48.172;8.058;2023-01-15T13:06:34;5.70;99.90
13892;DHT22;7016;48.172;8.058;2023-01-15T13:12:10;5.80;99.90
13892;DHT22;7016;48.172;8.058;2023-01-15T13:14:36;5.70;99.90
13892;DHT22;7016;48.172;8.058;2023-01-15T13:22:09;5.60;99.90
13892;DHT22;7016;48.172;8.058;2023-01-15T13:25:10;5.50;99.90
13892;DHT22;7016;48.172;8.058;2023-01-15T13:28:17;5.40;99.90
13892;DHT22;7016;48.172;8.058;2023-01-15T13:30:59;5.50;99.90
13892;DHT22;7016;48.172;8.058;2023-01-15T13:33:40;5.40;99.90
13892;DHT22;7016;48.172;8.058;2023-01-15T13:38:49;5.70;99.90
13892;DHT22;7016;48.172;8.058;2023-01-15T13:41:28;5.70;99.90
13892;DHT22;7016;48.172;8.058;2023-01-15T13:44:23;5.60;99.90
13892;DHT22;7016;48.172;8.058;2023-01-15T13:47:08;5.70;99.90
13892;DHT22;7016;48.172;8.058;2023-01-15T13:49:37;5.80;99.90
13892;DHT22;7016;48.172;8.058;2023-01-15T13:52:06;5.80;99.90
13892;DHT22;7016;48.172;8.058;2023-01-15T13:54:38;5.80;99.90
13892;DHT22;7016;48.172;8.058;2023-01-15T13:59:49;5.70;99.90
13892;DHT22;7016;48.172;8.058;2023-01-15T14:04:53;5.80;99.90
13892;DHT22;7016;48.172;8.058;2023-01-15T14:07:39;5.80;99.90
13892;DHT22;7016;48.172;8.058;2023-01-15T14:18:16;5.90;99.90
13892;DHT22;7016;48.172;8.058;2023-01-15T14:21:03;5.90;99.90
13892;DHT22;7016;48.172;8.058;2023-01-15T14:26:16;6.00;99.90
13892;DHT22;7016;48.172;8.058;2023-01-15T14:34:26;6.00;99.90
13892;DHT22;7016;48.172;8.058;2023-01-15T14:39:53;6.00;99.90
13892;DHT22;7016;48.172;8.058;2023-01-15T14:47:48;6.20;99.90
13892;DHT22;7016;48.172;8.058;2023-01-15T14:55:29;6.20;99.90
13892;DHT22;7016;48.172;8.058;2023-01-15T14:58:02;6.10;99.90
13892;DHT22;7016;48.172;8.058;2023-01-15T15:00:40;6.00;99.90
13892;DHT22;7016;48.172;8.058;2023-01-15T15:03:21;5.80;99.90
13892;DHT22;7016;48.172;8.058;2023-01-15T15:05:51;5.80;99.90
13892;DHT22;7016;48.172;8.058;2023-01-15T15:08:18;5.90;99.90
13892;DHT22;7016;48.172;8.058;2023-01-15T15:10:52;6.00;99.90
13892;DHT22;7016;48.172;8.058;2023-01-15T15:16:18;5.90;99.90
13892;DHT22;7016;48.172;8.058;2023-01-15T15:18:57;5.90;99.90
13892;DHT22;7016;48.172;8.058;2023-01-15T15:21:37;5.90;99.90
13892;DHT22;7016;48.172;8.058;2023-01-15T15:24:13;5.80;99.90
13892;DHT22;7016;48.172;8.058;2023-01-15T15:26:41;5.90;99.90
13892;DHT22;7016;48.172;8.058;2023-01-15T15:29:12;5.90;99.90
13892;DHT22;7016;48.172;8.058;2023-01-15T15:34:25;6.00;99.90
13892;DHT22;7016;48.172;8.058;2023-01-15T15:36:52;5.70;99.90
13892;DHT22;7016;48.172;8.058;2023-01-15T15:41:48;5.80;99.90
13892;DHT22;7016;48.172;8.058;2023-01-15T15:44:49;5.80;99.90
13892;DHT22;7016;48.172;8.058;2023-01-15T15:47:40;5.90;99.90
13892;DHT22;7016;48.172;8.058;2023-01-15T15:50:26;6.00;99.90
13892;DHT22;7016;48.172;8.058;2023-01-15T15:52:54;5.90;99.90
13892;DHT22;7016;48.172;8.058;2023-01-15T15:55:21;5.90;99.90
13892;DHT22;7016;48.172;8.058;2023-01-15T15:57:59;6.00;99.90
